METAR v bližini

 

LJLJ - Ljubljana/Brnik, Slovenia
Oddaljenost od postaje: Z 41km
Podatki zajeti: 22/11/2017 17:00
Rahlo oblačno
Rahlo oblačno
 Veter iz smeri JJZ
Veter: JJZ 11 km/h
Temperatura: 9°C
Občutek mraza zaradi vetra: 7°C
Rosišče: 4°C
Vlažnost: 71%
Tlak: 1018 hPa
Oblačnost: Rahlo oblačno
Vidljivost: 10 km
Podrobnosti o oblakih: Rahlo oblačno 1219 m
2017/11/22 16:00 LJLJ 221600Z 21006KT 180V250 9999 FEW040 09/04 Q1018 NOSIG
LJMB - Maribor, Slovenia
Oddaljenost od postaje: SV 63km
Podatki zajeti: 22/11/2017 17:00
Jasno
Jasno
 Veter iz smeri JZ
Veter: JZ 19 km/h
Temperatura: 10°C
Občutek mraza zaradi vetra: 7°C
Rosišče: 5°C
Vlažnost: 71%
Tlak: 1015 hPa
Stanje: Jasno
Vidljivost: večja od 10 km
2017/11/22 16:00 LJMB 221600Z 22010KT CAVOK 10/05 Q1015
 
LJPZ - Portoroz, Slovenia
Oddaljenost od postaje: JZ 130km
Podatki zajeti: 22/11/2017 17:00
Pretežno oblačno
Pretežno oblačno
 Veter iz smeri spremenljiv
Veter: spremenljiv 4 km/h
Temperatura: 11°C
Rosišče: 9°C
Vlažnost: 88%
Tlak: 1020 hPa
Oblačnost: Pretežno oblačno
Vidljivost: 10 km
Podrobnosti o oblakih: Pretežno oblačno 1402 m
2017/11/22 16:00 LJPZ 221600Z VRB02KT 9999 BKN046 11/09 Q1020
LJCE - Cerklje, Slovenia
Oddaljenost od postaje: VJV 49km
Podatki zajeti: 22/11/2017 17:00
Jasno
Jasno
 Veter iz smeri ZJZ
Veter: ZJZ 13 km/h
Temperatura: 11°C
Rosišče: 5°C
Vlažnost: 67%
Tlak: 1017 hPa
Oblačnost: Jasno
Vidljivost: 10 km
2017/11/22 16:00 LJCE 221600Z AUTO 24007KT 9999 NCD 11/05 Q1017
 
LDZA - Zagreb/Pleso, Croatia
Oddaljenost od postaje: VJV 96km
Podatki zajeti: 22/11/2017 17:00
Jasno
Jasno
 Veter iz smeri Z
Veter: Z 13 km/h
Temperatura: 12°C
Rosišče: 6°C
Vlažnost: 67%
Tlak: 1017 hPa
Stanje: Jasno
Vidljivost: večja od 10 km
2017/11/22 16:00 LDZA 221600Z 28007KT CAVOK 12/06 Q1017 NOSIG
LDRI - Rijeka/Omisalj, Croatia
Oddaljenost od postaje: JJZ 109km
Podatki zajeti: 22/11/2017 17:00
Pretežno oblačno
Pretežno oblačno
 Veter iz smeri J
Veter: J 13 km/h
Temperatura: 13°C
Rosišče: 10°C
Vlažnost: 82%
Tlak: 1020 hPa
Oblačnost: Pretežno oblačno
Vidljivost: 10 km
Podrobnosti o oblakih: Delno oblačno 914 m
Pretežno oblačno 1219 m
2017/11/22 16:00 LDRI 221600Z 19007KT 9999 SCT030 BKN040 13/10 Q1020
 
LDPL - Pula, Croatia
Oddaljenost od postaje: JJZ 164km
Podatki zajeti: 22/11/2017 17:00
Pretežno oblačno
Pretežno oblačno
 Veter iz smeri calm
Veter: Tišina
Temperatura: 10°C
Rosišče: 8°C
Vlažnost: 88%
Tlak: 1020 hPa
Oblačnost: Pretežno oblačno
Vidljivost: 10 km
Podrobnosti o oblakih: Pretežno oblačno 1524 m
2017/11/22 16:00 LDPL 221600Z 00000KT 9999 BKN050 10/08 Q1020 NOSIG
LOWK - Klagenfurt(Civ/M, Austria
Oddaljenost od postaje: SZ 76km
Podatki zajeti: 22/11/2017 16:50
Jasno
Jasno
 Veter iz smeri spremenljiv
Veter: spremenljiv 4 km/h
Temperatura: 6°C
Rosišče: 3°C
Vlažnost: 81%
Tlak: 1017 hPa
Stanje: Jasno
Vidljivost: večja od 10 km
2017/11/22 15:50 LOWK 221550Z VRB02KT CAVOK 06/03 Q1017 NOSIG
 
LOWG - Graz (mil/Civ), Austria
Oddaljenost od postaje: SSV 100km
Podatki zajeti: 22/11/2017 16:50
Jasno
Jasno
 Veter iz smeri spremenljiv
Veter: spremenljiv 4 km/h
Temperatura: 7°C
Rosišče: 4°C
Vlažnost: 81%
Tlak: 1015 hPa
Stanje: Jasno
Vidljivost: večja od 10 km
2017/11/22 15:50 LOWG 221550Z VRB02KT CAVOK 07/04 Q1015 NOSIG
LOWZ - Zell Am See, Austria
Oddaljenost od postaje: SZ 211km
Podatki zajeti: 31/12/2016 17:00
Ni posodobljen
Jasno
Jasno
 Veter iz smeri spremenljiv
Veter: spremenljiv 4 km/h
Temperatura: -4°C
Rosišče: -7°C
Vlažnost: 80%
Tlak: 1031 hPa
Oblačnost: Jasno
2016/12/31 16:00 LOWZ 311600Z VRB02KT 50KM SKC M04/M07 Q1031
 
LOAN - Wr.neustadt East, Austria
Oddaljenost od postaje: SSV 212km
Podatki zajeti: 22/11/2017 16:00
Ni posodobljen
Pretežno oblačno
Pretežno oblačno
 Veter iz smeri SSV
Veter: SSV 6 km/h
Oblačnost: Pretežno oblačno
Podrobnosti o oblakih: Pretežno oblačno 9144 m
2017/11/22 15:00 LOAN 221500Z 03003KT 45KM BKN300CI
LIPQ - Ronchi Legionari, Italy
Oddaljenost od postaje: JZ 35km
Podatki zajeti: 22/11/2017 16:50
Delno oblačno
Delno oblačno
 Veter iz smeri JZ
Veter: JZ 6 km/h
Temperatura: 11°C
Rosišče: 6°C
Vlažnost: 72%
Tlak: 1020 hPa
Oblačnost: Delno oblačno
Vidljivost: 7 km
Podrobnosti o oblakih: Delno oblačno 1524 m
2017/11/22 15:50 LIPQ 221550Z 23003KT 7000 SCT050 11/06 Q1020
 
LIVT - Trieste, Italy
Oddaljenost od postaje: ZJZ 109km
Podatki zajeti: 22/11/2017 16:55
Oblačno
Oblačno
 Veter iz smeri calm
Veter: Tišina
Temperatura: 12°C
Rosišče: 8°C
Vlažnost: 77%
Tlak: 1019 hPa
Oblačnost: Oblačno
Vidljivost: 10 km
Podrobnosti o oblakih: Oblačno 914 m
2017/11/22 15:55 LIVT 221555Z 00000KT 9999 OVC030 12/08 Q1019 RMK OVC QUK 0 QUL 0 VIS MAR 10 KM VIS MIN 9999
LIVO - Tarvisio, Italy
Oddaljenost od postaje: SSZ 49km
Podatki zajeti: 22/11/2017 16:55
Jasno
Jasno
 Veter iz smeri SZ
Veter: SZ 17 km/h
Temperatura: 6°C
Občutek mraza zaradi vetra: 3°C
Rosišče: 2°C
Vlažnost: 76%
Tlak: 1017 hPa
Stanje: Jasno
Vidljivost: večja od 10 km
2017/11/22 15:55 LIVO 221555Z 32009KT CAVOK 06/02 Q1017 RMK FEW FEW180 VIS MIN 9999
 
LIPZ - Venezia/Tessera, Italy
Oddaljenost od postaje: ZJZ 217km
Podatki zajeti: 22/11/2017 16:50
Delno oblačno
Delno oblačno
 Veter iz smeri VSV
Veter: VSV 4 km/h
Temperatura: 9°C
Rosišče: 6°C
Vlažnost: 82%
Tlak: 1020 hPa
Oblačnost: Delno oblačno
Vidljivost: 8 km
2017/11/22 15:50 LIPZ 221550Z 07002KT 8000 NSC 09/06 Q1020 NOSIG
LHSM - Balaton, Hungary
Oddaljenost od postaje: VSV 177km
Podatki zajeti: 22/11/2017 16:45
Jasno
Jasno
 Veter iz smeri JJV
Veter: JJV 7 km/h
Temperatura: 12°C
Rosišče: 6°C
Vlažnost: 67%
Tlak: 1015 hPa
Stanje: Jasno
Vidljivost: večja od 10 km
2017/11/22 15:45 LHSM 221545Z 15004KT CAVOK 12/06 Q1015